Time;durP1;ratioP1;P1;durP2;ratioP2;P2;SDS_P1;SDS_P2;PMS_P1;PMS_P2;Temp;Humidity;BMP_temperature;BMP_pressure;BME280_temperature;BME280_humidity;BME280_pressure;Samples;Min_cycle;Max_cycle;Signal;HPM_P1;HPM_P2
2023/03/21 00:00:23;;;;;;;1.38;0.63;;;11.40;99.90;;;;;;5090784;28;20021;-76
2023/03/21 00:02:49;;;;;;;0.60;0.57;;;11.50;99.90;;;;;;5090200;28;20122;-76
2023/03/21 00:05:15;;;;;;;1.75;0.40;;;11.50;99.90;;;;;;5089734;28;20372;-76
2023/03/21 00:07:40;;;;;;;1.38;0.40;;;11.50;99.90;;;;;;5090470;28;20100;-76
2023/03/21 00:10:07;;;;;;;1.45;0.60;;;11.50;99.90;;;;;;5089895;28;20106;-76
2023/03/21 00:12:36;;;;;;;1.08;0.50;;;11.50;99.90;;;;;;5090529;28;20028;-77
2023/03/21 00:15:06;;;;;;;1.10;0.60;;;11.50;99.90;;;;;;5089900;28;20117;-75
2023/03/21 00:17:33;;;;;;;1.73;0.55;;;11.50;99.90;;;;;;5090938;28;20043;-76
2023/03/21 00:19:59;;;;;;;1.83;1.00;;;11.50;99.90;;;;;;5089513;28;20057;-75
2023/03/21 00:22:27;;;;;;;1.35;0.40;;;11.50;99.90;;;;;;5090252;28;20020;-76
2023/03/21 00:24:53;;;;;;;2.90;0.60;;;11.40;99.90;;;;;;5093685;28;20443;-79
2023/03/21 00:27:19;;;;;;;1.33;0.32;;;11.40;99.90;;;;;;5093670;28;20394;-76
2023/03/21 00:29:48;;;;;;;2.40;0.45;;;11.40;99.90;;;;;;5094008;28;20100;-76
2023/03/21 00:32:14;;;;;;;2.53;0.63;;;11.40;99.90;;;;;;5093492;28;20020;-75
2023/03/21 00:34:41;;;;;;;2.38;0.60;;;11.50;99.90;;;;;;5094316;28;20031;-76
2023/03/21 00:37:08;;;;;;;3.72;0.70;;;11.50;99.90;;;;;;5092471;28;20032;-76
2023/03/21 00:39:34;;;;;;;1.15;0.57;;;11.50;99.90;;;;;;5094314;28;20032;-75
2023/03/21 00:42:00;;;;;;;2.55;0.93;;;11.50;99.90;;;;;;5094298;28;20032;-76
2023/03/21 00:44:26;;;;;;;1.05;0.43;;;11.50;99.90;;;;;;5094425;28;20032;-76
2023/03/21 00:46:52;;;;;;;1.80;0.50;;;11.50;99.90;;;;;;5094537;28;20081;-75
2023/03/21 00:49:21;;;;;;;3.67;0.70;;;11.60;99.90;;;;;;5092234;28;20039;-76
2023/03/21 00:51:50;;;;;;;1.83;0.65;;;11.60;99.90;;;;;;5093630;28;20331;-75
2023/03/21 00:54:16;;;;;;;4.68;0.70;;;11.60;99.90;;;;;;5092992;28;20603;-76
2023/03/21 00:56:42;;;;;;;1.85;0.50;;;11.60;99.90;;;;;;5092083;28;20020;-75
2023/03/21 00:59:08;;;;;;;3.42;0.70;;;11.60;99.90;;;;;;5092665;28;20450;-75
2023/03/21 01:01:33;;;;;;;3.42;0.70;;;11.60;99.90;;;;;;5093450;28;20039;-75
2023/03/21 01:04:06;;;;;;;3.40;0.65;;;11.60;99.90;;;;;;5093099;28;20035;-76
2023/03/21 01:06:39;;;;;;;1.67;0.50;;;11.70;99.90;;;;;;5093779;28;20455;-75
2023/03/21 01:09:06;;;;;;;;;;;11.70;99.90;;;;;;5093266;28;20028;-75
2023/03/21 01:11:33;;;;;;;3.42;0.70;;;11.70;99.90;;;;;;5092132;28;19904;-75
2023/03/21 01:13:59;;;;;;;3.25;0.70;;;11.70;99.90;;;;;;5092893;28;20035;-77
2023/03/21 01:16:25;;;;;;;4.85;1.00;;;11.70;99.90;;;;;;5093570;28;20459;-75
2023/03/21 01:18:51;;;;;;;2.47;0.40;;;11.70;99.90;;;;;;5093545;28;20024;-75
2023/03/21 01:21:18;;;;;;;4.82;0.98;;;11.70;99.90;;;;;;5092799;28;20027;-76
2023/03/21 01:23:44;;;;;;;2.38;0.60;;;11.70;99.90;;;;;;5093402;28;20497;-75
2023/03/21 01:26:11;;;;;;;1.88;0.60;;;11.80;99.90;;;;;;5092553;28;20028;-76
2023/03/21 01:28:38;;;;;;;2.38;0.90;;;11.70;99.90;;;;;;5093287;28;20339;-75
2023/03/21 01:31:04;;;;;;;3.10;0.60;;;11.70;99.90;;;;;;5092430;28;20428;-76
2023/03/21 01:33:31;;;;;;;2.78;0.73;;;11.70;99.90;;;;;;5093320;28;20080;-76
2023/03/21 01:35:58;;;;;;;2.25;0.80;;;11.70;99.90;;;;;;5092061;28;20076;-79
2023/03/21 01:38:24;;;;;;;4.60;1.02;;;11.70;99.90;;;;;;5092591;28;20153;-74
2023/03/21 01:40:50;;;;;;;4.30;0.93;;;11.70;99.90;;;;;;5093115;28;20020;-76
2023/03/21 01:43:27;;;;;;;4.68;0.75;;;11.70;99.90;;;;;;5092338;28;20028;-76
2023/03/21 01:46:09;;;;;;;2.53;0.90;;;11.70;99.90;;;;;;5092883;28;20382;-76
2023/03/21 01:48:40;;;;;;;2.83;0.80;;;11.60;99.90;;;;;;5092768;28;20484;-75
2023/03/21 01:51:08;;;;;;;1.98;1.05;;;11.70;99.90;;;;;;5091915;28;20080;-76
2023/03/21 01:53:36;;;;;;;1.88;0.77;;;11.60;99.90;;;;;;5092589;28;20031;-75
2023/03/21 01:56:08;;;;;;;3.08;0.88;;;11.60;99.90;;;;;;5091830;28;20032;-75
2023/03/21 01:58:35;;;;;;;2.17;0.70;;;11.60;99.90;;;;;;5092257;28;20475;-76
2023/03/21 02:01:02;;;;;;;4.03;1.00;;;11.60;99.90;;;;;;5090502;28;20260;-79
2023/03/21 02:03:36;;;;;;;5.03;1.13;;;11.60;99.90;;;;;;5091956;28;20028;-75
2023/03/21 02:06:08;;;;;;;3.13;0.88;;;11.60;99.90;;;;;;5091825;28;20028;-80
2023/03/21 02:08:34;;;;;;;5.78;1.10;;;11.60;99.90;;;;;;5090997;28;20038;-76
2023/03/21 02:11:00;;;;;;;5.32;0.93;;;11.60;99.90;;;;;;5091831;28;20111;-79
2023/03/21 02:13:26;;;;;;;5.03;1.52;;;11.60;99.90;;;;;;5091816;28;20125;-75
2023/03/21 02:16:18;;;;;;;5.75;1.48;;;11.60;99.90;;;;;;5092130;28;20374;-75
2023/03/21 02:18:52;;;;;;;6.63;1.55;;;11.50;99.90;;;;;;5092208;28;20477;-75
2023/03/21 02:21:24;;;;;;;6.70;1.55;;;11.50;99.90;;;;;;5091735;28;20050;-76
2023/03/21 02:24:27;;;;;;;8.48;1.80;;;11.40;99.90;;;;;;5092012;28;20512;-76
2023/03/21 02:27:01;;;;;;;8.23;1.30;;;11.40;99.90;;;;;;5091567;28;20053;-76
2023/03/21 02:29:49;;;;;;;6.72;1.25;;;11.40;99.90;;;;;;5091734;28;20020;-76
2023/03/21 02:32:38;;;;;;;5.07;1.42;;;11.30;99.90;;;;;;5091194;28;20053;-76
2023/03/21 02:35:41;;;;;;;5.75;1.25;;;11.30;99.90;;;;;;5091199;28;20028;-79
2023/03/21 02:38:29;;;;;;;5.55;1.27;;;11.30;99.90;;;;;;5091259;28;20074;-76
2023/03/21 02:41:08;;;;;;;9.05;1.50;;;11.20;99.90;;;;;;5091858;28;20024;-76
2023/03/21 02:43:45;;;;;;;6.35;1.10;;;11.20;99.90;;;;;;5091543;28;20130;-76
2023/03/21 02:46:16;;;;;;;6.75;1.40;;;11.20;99.90;;;;;;5090819;28;20477;-75
2023/03/21 02:48:55;;;;;;;5.13;1.20;;;11.20;99.90;;;;;;5090111;28;20024;-75
2023/03/21 02:51:23;;;;;;;8.68;1.75;;;11.20;99.90;;;;;;5090627;28;20031;-76
2023/03/21 02:53:55;;;;;;;6.15;1.40;;;11.20;99.90;;;;;;5091370;28;20035;-75
2023/03/21 02:56:23;;;;;;;9.30;1.65;;;11.20;99.90;;;;;;5090962;28;20509;-76
2023/03/21 02:58:49;;;;;;;5.45;1.30;;;11.20;99.90;;;;;;5089635;28;20039;-76
2023/03/21 03:01:15;;;;;;;5.85;1.35;;;11.20;99.90;;;;;;5090622;28;20035;-76
2023/03/21 03:03:41;;;;;;;9.30;1.92;;;11.20;99.90;;;;;;5091680;28;20115;-77
2023/03/21 03:06:16;;;;;;;8.50;1.52;;;11.20;99.90;;;;;;5090740;28;20036;-76
2023/03/21 03:08:47;;;;;;;12.95;2.20;;;11.10;99.90;;;;;;5091079;28;20102;-75
2023/03/21 03:11:35;;;;;;;4.05;1.15;;;11.10;99.90;;;;;;5090566;28;20031;-75
2023/03/21 03:14:04;;;;;;;3.42;1.10;;;11.10;99.90;;;;;;5091309;28;20035;-75
2023/03/21 03:17:00;;;;;;;8.90;1.38;;;11.10;99.90;;;;;;5090942;28;20020;-76
2023/03/21 03:19:29;;;;;;;6.68;1.30;;;11.00;99.90;;;;;;5090564;28;20588;-76
2023/03/21 03:22:05;;;;;;;7.50;1.08;;;11.00;99.90;;;;;;5091070;28;20131;-76
2023/03/21 03:24:37;;;;;;;5.45;1.27;;;11.00;99.90;;;;;;5090681;28;20065;-76
2023/03/21 03:27:14;;;;;;;6.25;0.98;;;11.00;99.90;;;;;;5090955;28;20059;-75
2023/03/21 03:29:43;;;;;;;4.05;1.02;;;11.00;99.90;;;;;;5090703;28;20384;-76
2023/03/21 03:32:19;;;;;;;4.65;1.13;;;11.00;99.90;;;;;;5089927;28;20104;-79
2023/03/21 03:34:55;;;;;;;7.60;1.35;;;11.00;99.90;;;;;;5091216;28;20055;-76
2023/03/21 03:37:28;;;;;;;5.90;1.48;;;11.00;99.90;;;;;;5090737;28;20032;-76
2023/03/21 03:40:15;;;;;;;4.82;1.08;;;11.00;99.90;;;;;;5091214;28;20038;-75
2023/03/21 03:42:49;;;;;;;6.95;1.20;;;11.10;99.90;;;;;;5090594;28;20024;-75
2023/03/21 03:45:16;;;;;;;5.82;1.50;;;11.10;99.90;;;;;;5090611;28;20085;-76
2023/03/21 03:47:57;;;;;;;4.53;1.13;;;11.10;99.90;;;;;;5090635;28;20352;-76
2023/03/21 03:50:38;;;;;;;8.05;1.70;;;11.20;99.90;;;;;;5089800;28;20441;-75
2023/03/21 03:53:28;;;;;;;7.47;1.13;;;11.20;99.90;;;;;;5090922;28;20032;-75
2023/03/21 03:55:55;;;;;;;3.88;1.27;;;11.30;99.90;;;;;;5090514;28;20039;-75
2023/03/21 03:58:23;;;;;;;5.10;1.60;;;11.30;99.90;;;;;;5091888;28;20028;-76
2023/03/21 04:00:49;;;;;;;4.97;1.08;;;11.30;99.90;;;;;;5094519;28;20093;-75
2023/03/21 04:03:15;;;;;;;7.03;1.27;;;11.30;99.90;;;;;;5093824;28;20386;-76
2023/03/21 04:05:45;;;;;;;9.35;1.92;;;11.30;99.90;;;;;;5093375;28;20036;-75
2023/03/21 04:08:12;;;;;;;5.82;1.70;;;11.30;99.90;;;;;;5093995;28;20024;-79
2023/03/21 04:10:39;;;;;;;7.28;1.52;;;11.30;99.90;;;;;;5094677;28;20123;-76
2023/03/21 04:13:05;;;;;;;5.30;1.10;;;11.30;99.90;;;;;;5094546;28;20031;-76
2023/03/21 04:15:31;;;;;;;9.75;1.75;;;11.30;99.90;;;;;;5093918;28;20280;-76
2023/03/21 04:17:56;;;;;;;6.82;1.55;;;11.30;99.90;;;;;;5094546;28;20375;-75
2023/03/21 04:20:23;;;;;;;6.00;1.45;;;11.30;99.90;;;;;;5093817;28;20097;-75
2023/03/21 04:22:48;;;;;;;5.45;1.10;;;11.20;99.90;;;;;;5094288;28;20024;-75
2023/03/21 04:25:14;;;;;;;5.65;1.15;;;11.20;99.90;;;;;;5092120;28;20024;-76
2023/03/21 04:27:40;;;;;;;6.63;1.30;;;11.20;99.90;;;;;;5094149;28;20488;-75
2023/03/21 04:30:06;;;;;;;6.72;1.42;;;11.30;99.90;;;;;;5094354;28;20115;-75
2023/03/21 04:32:32;;;;;;;9.75;1.77;;;11.20;99.90;;;;;;5093447;28;20031;-76
2023/03/21 04:34:59;;;;;;;7.60;1.85;;;11.20;99.90;;;;;;5092800;28;20028;-76
2023/03/21 04:37:26;;;;;;;6.78;1.55;;;11.20;99.90;;;;;;5093476;28;20426;-75
2023/03/21 04:39:52;;;;;;;9.38;2.00;;;11.20;99.90;;;;;;5093945;28;20039;-75
2023/03/21 04:42:18;;;;;;;6.80;1.45;;;11.20;99.90;;;;;;5093336;28;20027;-76
2023/03/21 04:44:45;;;;;;;5.18;1.17;;;11.10;99.90;;;;;;5093587;28;20126;-75
2023/03/21 04:47:12;;;;;;;6.90;1.80;;;11.10;99.90;;;;;;5093898;28;20035;-76
2023/03/21 04:49:38;;;;;;;10.07;1.90;;;11.10;99.90;;;;;;5093912;28;20078;-76
2023/03/21 04:52:04;;;;;;;4.70;0.98;;;11.10;99.90;;;;;;5092456;28;20036;-76
2023/03/21 04:54:31;;;;;;;3.45;1.10;;;11.10;99.90;;;;;;5092920;28;20056;-76
2023/03/21 04:56:57;;;;;;;5.55;1.00;;;11.10;99.90;;;;;;5093980;28;20059;-76
2023/03/21 04:59:23;;;;;;;4.30;0.85;;;11.20;99.90;;;;;;5093180;28;20042;-76
2023/03/21 05:01:49;;;;;;;5.88;0.90;;;11.10;99.90;;;;;;5093785;28;20103;-75
2023/03/21 05:04:16;;;;;;;4.63;1.00;;;11.20;99.90;;;;;;5093060;28;20032;-78
2023/03/21 05:06:42;;;;;;;6.35;1.05;;;11.20;99.90;;;;;;5093514;28;20463;-75
2023/03/21 05:09:09;;;;;;;4.25;0.77;;;11.20;99.90;;;;;;5093172;28;20032;-75
2023/03/21 05:11:37;;;;;;;4.95;0.98;;;11.20;99.90;;;;;;5092629;28;20169;-75
2023/03/21 05:14:04;;;;;;;3.65;0.90;;;11.30;99.90;;;;;;5093290;28;20024;-75
2023/03/21 05:16:30;;;;;;;2.58;0.85;;;11.20;99.90;;;;;;5092632;28;20390;-75
2023/03/21 05:18:58;;;;;;;3.33;0.75;;;11.30;99.90;;;;;;5093112;28;20024;-75
2023/03/21 05:21:28;;;;;;;3.45;0.90;;;11.20;99.90;;;;;;5092715;28;20104;-76
2023/03/21 05:23:54;;;;;;;1.85;0.60;;;11.20;99.90;;;;;;5093274;28;20036;-75
2023/03/21 05:26:21;;;;;;;4.10;0.80;;;11.20;99.90;;;;;;5092942;28;20101;-77
2023/03/21 05:28:48;;;;;;;2.88;1.05;;;11.20;99.90;;;;;;5092899;28;20072;-76
2023/03/21 05:31:15;;;;;;;5.03;0.85;;;11.20;99.90;;;;;;5092869;28;20020;-76
2023/03/21 05:33:45;;;;;;;4.18;0.70;;;11.20;99.90;;;;;;5091441;28;20040;-76
2023/03/21 05:36:11;;;;;;;4.55;0.88;;;11.20;99.90;;;;;;5093361;28;20328;-76
2023/03/21 05:38:41;;;;;;;2.65;0.70;;;11.10;99.90;;;;;;5092226;28;20047;-76
2023/03/21 05:41:07;;;;;;;4.65;0.77;;;11.20;99.90;;;;;;5093207;28;20024;-76
2023/03/21 05:43:33;;;;;;;4.85;0.80;;;11.20;99.90;;;;;;5091713;28;20055;-76
2023/03/21 05:45:59;;;;;;;2.65;0.80;;;11.20;99.90;;;;;;5092886;28;20028;-76
2023/03/21 05:48:24;;;;;;;4.72;0.77;;;11.10;99.90;;;;;;5090233;28;20065;-76
2023/03/21 05:50:52;;;;;;;4.03;1.00;;;11.10;99.90;;;;;;5092452;28;20024;-76
2023/03/21 05:53:17;;;;;;;2.83;0.93;;;11.10;99.90;;;;;;5092086;28;20085;-80
2023/03/21 05:55:43;;;;;;;5.18;0.88;;;11.10;99.90;;;;;;5092154;28;20067;-76
2023/03/21 05:58:09;;;;;;;3.90;0.50;;;11.10;99.90;;;;;;5092223;28;20374;-76
2023/03/21 06:00:35;;;;;;;2.25;0.73;;;11.10;99.90;;;;;;5091369;28;20057;-76
2023/03/21 06:03:00;;;;;;;2.88;0.70;;;11.10;99.90;;;;;;5092298;28;20382;-76
2023/03/21 06:05:26;;;;;;;2.30;0.50;;;11.10;99.90;;;;;;5091451;28;20020;-76
2023/03/21 06:07:52;;;;;;;3.97;0.90;;;11.00;99.90;;;;;;5092619;28;20046;-76
2023/03/21 06:10:18;;;;;;;5.80;1.13;;;11.00;99.90;;;;;;5092039;28;20400;-79
2023/03/21 06:12:44;;;;;;;3.80;0.85;;;11.00;99.90;;;;;;5091970;28;20020;-76
2023/03/21 06:15:10;;;;;;;4.85;1.02;;;11.00;99.90;;;;;;5092338;28;20088;-75
2023/03/21 06:17:36;;;;;;;2.90;0.75;;;10.90;99.90;;;;;;5091704;28;20054;-75
2023/03/21 06:20:03;;;;;;;2.85;0.70;;;10.90;99.90;;;;;;5090529;28;20025;-76
2023/03/21 06:22:30;;;;;;;5.13;1.45;;;10.90;99.90;;;;;;5091168;28;20109;-76
2023/03/21 06:24:56;;;;;;;5.55;0.90;;;10.80;99.90;;;;;;5092018;28;20036;-75
2023/03/21 06:27:21;;;;;;;4.03;1.08;;;10.80;99.90;;;;;;5091310;28;20071;-79
2023/03/21 06:29:48;;;;;;;7.28;1.20;;;10.80;99.90;;;;;;5090532;28;20027;-76
2023/03/21 06:32:15;;;;;;;2.75;0.93;;;10.80;99.90;;;;;;5091774;28;20039;-76
2023/03/21 06:34:41;;;;;;;2.65;1.00;;;10.70;99.90;;;;;;5090951;28;20101;-76
2023/03/21 06:37:07;;;;;;;5.35;1.40;;;10.70;99.90;;;;;;5091836;28;20059;-76
2023/03/21 06:39:33;;;;;;;4.80;1.35;;;10.70;99.90;;;;;;5091267;28;20237;-77
2023/03/21 06:41:59;;;;;;;5.43;1.30;;;10.70;99.90;;;;;;5091658;28;20050;-76
2023/03/21 06:44:25;;;;;;;3.28;1.30;;;10.70;99.90;;;;;;5091286;28;20028;-77
2023/03/21 06:46:51;;;;;;;7.28;1.58;;;10.70;99.90;;;;;;5091704;28;20046;-76
2023/03/21 06:49:17;;;;;;;4.43;1.38;;;10.60;99.90;;;;;;5091848;28;20024;-77
2023/03/21 06:51:43;;;;;;;4.22;1.60;;;10.60;99.90;;;;;;5092108;28;20123;-77
2023/03/21 06:54:09;;;;;;;3.53;1.33;;;10.60;99.90;;;;;;5090806;28;20074;-77
2023/03/21 06:56:35;;;;;;;3.30;1.15;;;10.50;99.90;;;;;;5091156;28;20028;-75
2023/03/21 06:59:01;;;;;;;5.03;1.38;;;10.40;99.90;;;;;;5091253;28;20049;-76
2023/03/21 07:01:26;;;;;;;4.47;1.30;;;10.40;99.90;;;;;;5090628;28;20088;-76
2023/03/21 07:03:55;;;;;;;2.92;0.82;;;10.30;99.90;;;;;;5090905;28;20330;-75
2023/03/21 07:06:21;;;;;;;5.45;0.88;;;10.30;99.90;;;;;;5090143;28;20394;-75
2023/03/21 07:08:46;;;;;;;4.72;1.15;;;10.40;99.90;;;;;;5090531;28;20024;-76
2023/03/21 07:11:12;;;;;;;4.68;1.15;;;10.50;99.90;;;;;;5091035;28;20027;-76
2023/03/21 07:13:38;;;;;;;3.75;1.17;;;10.60;99.90;;;;;;5090674;28;20023;-77
2023/03/21 07:16:04;;;;;;;2.97;1.20;;;10.70;99.90;;;;;;5090559;28;20095;-76
2023/03/21 07:18:31;;;;;;;3.70;1.00;;;10.70;99.90;;;;;;5089768;28;20081;-75
2023/03/21 07:20:57;;;;;;;4.20;1.20;;;10.70;99.90;;;;;;5090804;28;20032;-74
2023/03/21 07:23:25;;;;;;;3.85;0.90;;;10.80;99.90;;;;;;5090643;28;20127;-74
2023/03/21 07:25:52;;;;;;;4.20;0.75;;;10.70;99.90;;;;;;5090500;28;20024;-75
2023/03/21 07:28:18;;;;;;;1.55;0.85;;;10.80;99.90;;;;;;5090983;28;20060;-76
2023/03/21 07:30:45;;;;;;;2.10;0.68;;;10.80;99.90;;;;;;5090374;28;20565;-75
2023/03/21 07:33:11;;;;;;;1.95;1.00;;;10.80;99.90;;;;;;5088959;28;20024;-76
2023/03/21 07:35:37;;;;;;;2.75;1.02;;;10.80;99.90;;;;;;5090701;28;20020;-75
2023/03/21 07:38:04;;;;;;;2.28;1.00;;;10.80;99.90;;;;;;5090689;28;20053;-76
2023/03/21 07:40:30;;;;;;;3.45;1.20;;;10.80;99.90;;;;;;5090181;28;20483;-76
2023/03/21 07:42:56;;;;;;;2.88;1.35;;;10.80;99.90;;;;;;5090293;28;20024;-77
2023/03/21 07:45:24;;;;;;;4.72;1.70;;;10.80;99.90;;;;;;5090217;28;20028;-77
2023/03/21 07:47:50;;;;;;;3.50;1.17;;;10.80;99.90;;;;;;5089290;28;20051;-78
2023/03/21 07:50:16;;;;;;;4.30;1.20;;;10.70;99.90;;;;;;5089577;28;20055;-77
2023/03/21 07:52:42;;;;;;;2.65;1.27;;;10.70;99.90;;;;;;5088226;28;20408;-76
2023/03/21 07:55:08;;;;;;;2.90;1.55;;;10.70;99.90;;;;;;5089960;28;20066;-77
2023/03/21 07:57:35;;;;;;;2.22;1.38;;;10.70;99.90;;;;;;5089145;28;20405;-77
2023/03/21 08:00:02;;;;;;;5.32;1.23;;;10.70;99.90;;;;;;5089973;28;20035;-76
2023/03/21 08:02:28;;;;;;;2.35;1.00;;;10.70;99.90;;;;;;5089430;28;20040;-82
2023/03/21 08:04:53;;;;;;;3.63;1.17;;;10.70;99.90;;;;;;5088698;28;20474;-77
2023/03/21 08:07:19;;;;;;;7.68;1.05;;;10.60;99.90;;;;;;5089109;28;20020;-78
2023/03/21 08:09:45;;;;;;;2.88;1.23;;;10.60;99.90;;;;;;5088967;28;20793;-76
2023/03/21 08:12:10;;;;;;;2.83;1.05;;;10.60;99.90;;;;;;5089441;28;20032;-77
2023/03/21 08:14:37;;;;;;;2.13;0.95;;;10.60;99.90;;;;;;5080967;28;20199;-76
2023/03/21 08:17:04;;;;;;;3.45;1.48;;;10.60;99.90;;;;;;5078133;28;20471;-76
2023/03/21 08:19:29;;;;;;;5.95;1.50;;;10.60;99.90;;;;;;5068636;28;20043;-78
2023/03/21 08:21:58;;;;;;;6.15;1.60;;;10.80;99.90;;;;;;5069530;28;20408;-76
2023/03/21 08:24:25;;;;;;;4.65;1.40;;;10.90;99.90;;;;;;5069744;28;20072;-75
2023/03/21 08:26:51;;;;;;;6.00;1.40;;;10.90;99.90;;;;;;5069146;28;20111;-76
2023/03/21 08:29:16;;;;;;;4.90;1.20;;;10.90;99.90;;;;;;5068306;28;20464;-76
2023/03/21 08:31:42;;;;;;;3.40;1.00;;;10.90;99.90;;;;;;5069492;28;20454;-75
2023/03/21 08:34:08;;;;;;;3.78;0.93;;;10.90;99.90;;;;;;5067894;28;20108;-78
2023/03/21 08:36:37;;;;;;;4.60;1.25;;;10.90;99.90;;;;;;5068835;28;20028;-77
2023/03/21 08:39:04;;;;;;;5.40;0.98;;;10.90;99.90;;;;;;5069369;28;20029;-77
2023/03/21 08:41:35;;;;;;;4.00;0.98;;;11.00;99.90;;;;;;5068958;28;20025;-78
2023/03/21 08:44:01;;;;;;;4.50;1.02;;;11.00;99.90;;;;;;5070434;28;20127;-77
2023/03/21 08:46:27;;;;;;;3.67;1.15;;;11.00;99.90;;;;;;5073023;28;20459;-80
2023/03/21 08:48:53;;;;;;;3.00;0.80;;;11.00;99.90;;;;;;5072956;28;20467;-75
2023/03/21 08:51:19;;;;;;;4.50;0.73;;;11.00;99.90;;;;;;5071386;28;20124;-75
2023/03/21 08:53:45;;;;;;;5.40;0.80;;;11.10;99.90;;;;;;5072006;28;20078;-75
2023/03/21 08:56:11;;;;;;;2.20;0.70;;;11.10;99.90;;;;;;5072541;28;20020;-76
2023/03/21 08:58:37;;;;;;;9.07;1.20;;;11.20;99.90;;;;;;5072111;28;20024;-76
2023/03/21 09:01:05;;;;;;;3.70;1.00;;;11.30;99.90;;;;;;5072360;28;20035;-75
2023/03/21 09:03:31;;;;;;;5.82;1.25;;;11.40;99.90;;;;;;5071526;28;20094;-76
2023/03/21 09:05:57;;;;;;;5.75;1.30;;;11.40;99.90;;;;;;5072146;28;20028;-77
2023/03/21 09:08:23;;;;;;;4.85;0.98;;;11.60;99.90;;;;;;5093712;28;20028;-75
2023/03/21 09:10:52;;;;;;;3.00;1.00;;;11.80;99.90;;;;;;5097958;28;20085;-77
2023/03/21 09:13:18;;;;;;;7.57;1.00;;;12.00;99.90;;;;;;5092736;28;20422;-75
2023/03/21 09:15:44;;;;;;;3.72;0.82;;;12.00;99.90;;;;;;5092029;28;20020;-76
2023/03/21 09:18:16;;;;;;;5.82;1.20;;;12.20;99.90;;;;;;5091768;28;20028;-77
2023/03/21 09:20:44;;;;;;;7.65;1.02;;;12.20;99.90;;;;;;5091901;28;20024;-77
2023/03/21 09:23:11;;;;;;;2.97;1.13;;;12.30;99.90;;;;;;5091938;28;20459;-76
2023/03/21 09:25:37;;;;;;;6.28;1.00;;;12.40;99.90;;;;;;5091875;28;20032;-76
2023/03/21 09:28:04;;;;;;;3.13;0.90;;;12.40;99.90;;;;;;5092080;28;20047;-76
2023/03/21 09:30:32;;;;;;;4.68;0.93;;;12.40;99.90;;;;;;5092013;28;20344;-80
2023/03/21 09:33:05;;;;;;;6.07;0.80;;;12.40;99.90;;;;;;5092877;28;20043;-76
2023/03/21 09:35:31;;;;;;;4.40;1.30;;;12.50;99.90;;;;;;5092440;28;20032;-80
2023/03/21 09:37:57;;;;;;;6.10;1.13;;;12.50;99.90;;;;;;5091337;28;20069;-77
2023/03/21 09:40:48;;;;;;;5.18;1.25;;;12.60;99.90;;;;;;5092845;28;20374;-76
2023/03/21 09:43:22;;;;;;;4.88;1.08;;;12.70;99.90;;;;;;5093127;28;20126;-76
2023/03/21 09:46:15;;;;;;;9.70;1.10;;;12.80;99.90;;;;;;5092390;28;20030;-77
2023/03/21 09:48:58;;;;;;;3.80;1.10;;;12.70;99.90;;;;;;5092671;28;20039;-75
2023/03/21 09:51:33;;;;;;;4.57;0.90;;;12.80;99.90;;;;;;5093311;28;20032;-75
2023/03/21 09:54:06;;;;;;;6.93;1.20;;;12.70;99.90;;;;;;5092526;28;20043;-76
2023/03/21 09:56:33;;;;;;;6.57;1.10;;;12.90;99.90;;;;;;5091380;28;20051;-79
2023/03/21 09:59:00;;;;;;;6.45;1.08;;;13.00;99.90;;;;;;5092522;28;20536;-75
2023/03/21 10:01:31;;;;;;;8.88;1.63;;;12.90;99.90;;;;;;5092384;28;20034;-75
2023/03/21 10:04:04;;;;;;;4.82;1.80;;;12.80;99.90;;;;;;5091960;28;20051;-77
2023/03/21 10:06:32;;;;;;;5.28;0.90;;;12.90;99.90;;;;;;5092231;28;20441;-79
2023/03/21 10:09:27;;;;;;;6.70;1.27;;;12.90;99.90;;;;;;5092080;28;20032;-77
2023/03/21 10:11:55;;;;;;;4.47;0.85;;;13.00;99.90;;;;;;5087901;28;20147;-77
2023/03/21 10:14:42;;;;;;;11.55;1.30;;;13.20;99.90;;;;;;5092065;28;20024;-76
2023/03/21 10:17:32;;;;;;;3.63;0.90;;;13.20;99.90;;;;;;5090463;28;20054;-76
2023/03/21 10:20:37;;;;;;;7.90;1.30;;;13.30;99.90;;;;;;5091767;28;20040;-77
2023/03/21 10:23:11;;;;;;;7.22;1.30;;;13.30;99.90;;;;;;5068738;28;20039;-75
2023/03/21 10:25:44;;;;;;;4.15;0.98;;;13.40;99.90;;;;;;5051692;28;20028;-76
2023/03/21 10:28:27;;;;;;;5.00;1.33;;;13.30;99.90;;;;;;5068547;28;20055;-75
2023/03/21 10:30:57;;;;;;;5.55;1.30;;;13.30;99.90;;;;;;5068402;28;20048;-75
2023/03/21 10:33:31;;;;;;;3.63;1.17;;;13.30;99.90;;;;;;5051883;28;20065;-75
2023/03/21 10:36:04;;;;;;;4.18;0.82;;;13.20;99.90;;;;;;5068006;28;20196;-76
2023/03/21 10:38:30;;;;;;;4.63;1.08;;;13.20;99.90;;;;;;5068492;28;20079;-75
2023/03/21 10:40:56;;;;;;;4.20;0.93;;;13.10;99.90;;;;;;5067798;28;20100;-76
2023/03/21 10:43:30;;;;;;;4.32;1.25;;;13.20;99.90;;;;;;5051838;28;20511;-76
2023/03/21 10:45:56;;;;;;;7.03;1.20;;;13.30;99.90;;;;;;5050910;28;20100;-77
2023/03/21 10:48:23;;;;;;;4.95;0.80;;;13.50;99.90;;;;;;5068755;28;20055;-76
2023/03/21 10:50:53;;;;;;;3.17;0.80;;;13.70;99.90;;;;;;5068168;28;20054;-75
2023/03/21 10:53:28;;;;;;;4.75;0.90;;;13.70;99.90;;;;;;5075686;28;20040;-76
2023/03/21 10:55:58;;;;;;;1.92;0.80;;;13.70;99.90;;;;;;5091124;28;20016;-76
2023/03/21 10:58:32;;;;;;;1.50;0.38;;;13.60;99.90;;;;;;5091854;28;20415;-76
2023/03/21 11:01:01;;;;;;;2.28;0.47;;;13.60;99.90;;;;;;5092016;28;20493;-75
2023/03/21 11:03:32;;;;;;;5.93;0.85;;;13.60;99.90;;;;;;5092340;28;20028;-76
2023/03/21 11:06:04;;;;;;;3.28;0.70;;;13.60;99.90;;;;;;5092576;28;20056;-75
2023/03/21 11:08:36;;;;;;;6.10;0.95;;;13.60;99.90;;;;;;5092906;28;20031;-75
2023/03/21 11:11:07;;;;;;;3.67;0.50;;;13.70;99.90;;;;;;5093200;28;20053;-75
2023/03/21 11:13:39;;;;;;;3.42;0.70;;;13.80;99.90;;;;;;5091934;28;20303;-76
2023/03/21 11:16:09;;;;;;;0.83;0.20;;;13.90;99.90;;;;;;5092033;28;20032;-76
2023/03/21 11:18:41;;;;;;;4.38;0.80;;;13.90;99.90;;;;;;5092095;28;20314;-79
2023/03/21 11:21:10;;;;;;;4.50;0.43;;;13.90;99.90;;;;;;5093530;28;20448;-75
2023/03/21 11:23:46;;;;;;;5.05;0.35;;;13.90;99.90;;;;;;5092470;28;20068;-81
2023/03/21 11:26:29;;;;;;;4.60;0.68;;;13.90;99.90;;;;;;5089924;28;20093;-76
2023/03/21 11:28:56;;;;;;;3.05;0.50;;;13.80;99.90;;;;;;5089735;28;20063;-75
2023/03/21 11:31:35;;;;;;;5.07;0.70;;;13.80;99.90;;;;;;5090125;28;20028;-75
2023/03/21 11:34:06;;;;;;;2.20;0.70;;;13.70;99.90;;;;;;5089627;28;20036;-75
2023/03/21 11:36:37;;;;;;;2.10;0.60;;;13.60;99.90;;;;;;5089908;28;20024;-76
2023/03/21 11:39:22;;;;;;;4.80;0.60;;;13.60;99.90;;;;;;5090519;28;20088;-76
2023/03/21 11:41:51;;;;;;;4.35;0.32;;;13.70;99.90;;;;;;5090221;28;20054;-75
2023/03/21 11:44:40;;;;;;;4.78;0.40;;;13.70;99.90;;;;;;5090661;28;20036;-76
2023/03/21 11:47:09;;;;;;;2.67;0.40;;;13.70;99.90;;;;;;5090726;28;20089;-77
2023/03/21 11:49:35;;;;;;;1.17;0.30;;;13.80;99.90;;;;;;5090613;28;20020;-76
2023/03/21 11:52:29;;;;;;;5.88;0.52;;;13.80;99.90;;;;;;5088776;28;20468;-76
2023/03/21 11:55:04;;;;;;;0.93;0.40;;;13.90;99.90;;;;;;5090128;28;20031;-75
2023/03/21 11:57:54;;;;;;;4.85;0.80;;;13.90;99.90;;;;;;5090638;28;20020;-75
2023/03/21 12:00:28;;;;;;;2.47;0.50;;;13.90;99.90;;;;;;5090418;28;20070;-75
2023/03/21 12:03:02;;;;;;;1.77;0.65;;;14.00;99.90;;;;;;5088613;28;20028;-74
2023/03/21 12:05:42;;;;;;;6.05;0.77;;;14.10;99.90;;;;;;5090749;28;20074;-75
2023/03/21 12:08:08;;;;;;;7.85;2.05;;;14.20;99.90;;;;;;5088782;28;20031;-76
2023/03/21 12:10:46;;;;;;;4.35;0.80;;;14.30;99.90;;;;;;5088531;28;20364;-76
2023/03/21 12:13:17;;;;;;;3.58;0.63;;;14.40;99.90;;;;;;5090029;28;20036;-75
2023/03/21 12:16:01;;;;;;;21.02;2.55;;;14.40;99.90;;;;;;5089702;28;20069;-77
2023/03/21 12:18:55;;;;;;;3.60;0.75;;;14.50;99.90;;;;;;5090826;28;20039;-76
2023/03/21 12:21:36;;;;;;;10.18;1.02;;;14.50;99.90;;;;;;5094208;28;20028;-76
2023/03/21 12:24:14;;;;;;;3.65;0.55;;;14.40;99.90;;;;;;5093569;28;20118;-76
2023/03/21 12:26:51;;;;;;;5.13;0.98;;;14.30;99.90;;;;;;5093764;28;20103;-80
2023/03/21 12:29:44;;;;;;;2.50;0.93;;;14.20;99.90;;;;;;5094500;28;20035;-75
2023/03/21 12:32:17;;;;;;;8.10;1.08;;;14.10;99.90;;;;;;5093837;28;20169;-76
2023/03/21 12:34:59;;;;;;;2.85;0.80;;;13.90;99.90;;;;;;5092068;28;20032;-77
2023/03/21 12:37:47;;;;;;;5.43;0.65;;;13.80;99.90;;;;;;5093721;28;20233;-76
2023/03/21 12:40:35;;;;;;;1.77;0.40;;;13.60;99.90;;;;;;5094289;28;20024;-76
2023/03/21 12:43:04;;;;;;;1.95;0.47;;;13.60;99.90;;;;;;5093459;28;20106;-77
2023/03/21 12:45:38;;;;;;;2.15;0.52;;;13.70;99.90;;;;;;5094159;28;20028;-76
2023/03/21 12:48:24;;;;;;;3.15;0.77;;;13.80;99.90;;;;;;5093203;28;20095;-76
2023/03/21 12:50:55;;;;;;;4.65;0.95;;;13.80;99.90;;;;;;5093447;28;20061;-76
2023/03/21 12:53:50;;;;;;;2.28;0.50;;;14.00;99.90;;;;;;5093789;28;20032;-76
2023/03/21 12:56:39;;;;;;;5.78;1.30;;;14.10;99.90;;;;;;5092049;28;20056;-77
2023/03/21 12:59:05;;;;;;;4.35;0.80;;;14.20;99.90;;;;;;5093058;28;20070;-75
2023/03/21 13:01:33;;;;;;;4.53;0.80;;;14.20;99.90;;;;;;5093627;28;20028;-75
2023/03/21 13:04:14;;;;;;;5.63;1.20;;;14.30;99.90;;;;;;5092170;28;20100;-75